Time;durP1;ratioP1;P1;durP2;ratioP2;P2;SDS_P1;SDS_P2;PMS_P1;PMS_P2;Temp;Humidity;BMP_temperature;BMP_pressure;BME280_temperature;BME280_humidity;BME280_pressure;Samples;Min_cycle;Max_cycle;Signal;HPM_P1;HPM_P2
2022/10/15 00:01:49;;;;;;;10.20;4.90;;;;;;;8.61;82.39;101736.98;107246;1272;63590;-70
2022/10/15 00:04:17;;;;;;;9.90;5.30;;;;;;;8.55;82.33;101733.27;107198;1273;61564;-71
2022/10/15 00:06:46;;;;;;;8.60;5.00;;;;;;;8.49;82.94;101733.20;107199;1275;63694;-71
2022/10/15 00:09:14;;;;;;;9.50;5.40;;;;;;;8.43;83.39;101730.52;107323;1266;62741;-71
2022/10/15 00:11:43;;;;;;;13.80;5.90;;;;;;;8.35;82.66;101726.75;107258;1268;59751;-72
2022/10/15 00:14:11;;;;;;;9.90;6.00;;;;;;;8.20;83.29;101722.21;107218;1277;73096;-72
2022/10/15 00:16:40;;;;;;;9.50;5.20;;;;;;;8.14;83.04;101727.85;107251;1271;58289;-72
2022/10/15 00:19:09;;;;;;;10.50;4.90;;;;;;;8.01;83.57;101728.46;107270;1268;60451;-72
2022/10/15 00:21:38;;;;;;;10.10;5.50;;;;;;;7.85;85.19;101731.95;107278;1266;74807;-72
2022/10/15 00:24:07;;;;;;;9.70;5.20;;;;;;;7.76;85.38;101733.95;107372;1276;62030;-72
2022/10/15 00:26:35;;;;;;;8.80;5.70;;;;;;;7.65;84.64;101733.17;107268;1271;69442;-71
2022/10/15 00:29:04;;;;;;;8.70;5.30;;;;;;;7.49;86.28;101732.83;107265;1271;63573;-71
2022/10/15 00:31:33;;;;;;;9.80;5.50;;;;;;;7.42;85.53;101731.58;107275;1276;57747;-72
2022/10/15 00:34:02;;;;;;;12.40;5.80;;;;;;;7.30;87.21;101732.77;107309;1271;60449;-71
2022/10/15 00:36:34;;;;;;;9.30;5.20;;;;;;;7.24;87.08;101735.67;107203;1271;73716;-71
2022/10/15 00:39:05;;;;;;;9.40;5.30;;;;;;;7.16;86.74;101734.42;107385;1271;61474;-75
2022/10/15 00:41:41;;;;;;;8.00;5.80;;;;;;;7.07;86.62;101733.60;107262;1276;59247;-72
2022/10/15 00:44:27;;;;;;;14.50;6.20;;;;;;;6.96;87.00;101730.58;107223;1275;63354;-71
2022/10/15 00:47:12;;;;;;;8.80;5.40;;;;;;;6.86;88.09;101732.02;107241;1267;58230;-71
2022/10/15 00:49:50;;;;;;;9.00;5.70;;;;;;;6.77;89.07;101730.46;107279;1266;60418;-71
2022/10/15 00:52:24;;;;;;;9.10;5.70;;;;;;;6.68;89.39;101729.96;107272;1266;63605;-71
2022/10/15 00:55:01;;;;;;;11.20;5.50;;;;;;;6.65;89.82;101726.65;107377;1266;72323;-71
2022/10/15 00:57:32;;;;;;;9.30;5.50;;;;;;;6.63;89.27;101729.29;107227;1269;61522;-71
2022/10/15 01:00:14;;;;;;;9.20;4.90;;;;;;;6.59;88.85;101730.50;107237;1272;73822;-71
2022/10/15 01:02:45;;;;;;;8.00;4.50;;;;;;;6.55;88.07;101729.60;107227;1269;62500;-70
2022/10/15 01:05:16;;;;;;;7.90;4.80;;;;;;;6.51;88.42;101728.89;107005;1271;58198;-70
2022/10/15 01:07:45;;;;;;;8.30;5.00;;;;;;;6.47;88.54;101729.42;107097;1271;63828;-71
2022/10/15 01:10:19;;;;;;;6.50;4.50;;;;;;;6.44;89.56;101727.98;107208;1266;71613;-70
2022/10/15 01:13:22;;;;;;;8.00;4.70;;;;;;;6.42;89.28;101726.15;107075;1272;70075;-71
2022/10/15 01:16:06;;;;;;;9.50;4.70;;;;;;;6.38;88.80;101727.70;107072;1271;64528;-73
2022/10/15 01:18:49;;;;;;;8.60;4.30;;;;;;;6.36;89.20;101728.27;107080;1271;62520;-70
2022/10/15 01:21:53;;;;;;;8.00;4.00;;;;;;;6.37;89.20;101728.77;107170;1267;61070;-70
2022/10/15 01:25:28;;;;;;;9.30;4.60;;;;;;;6.38;88.16;101724.73;107175;1277;73432;-70
2022/10/15 01:28:39;;;;;;;7.80;4.00;;;;;;;6.40;87.72;101726.05;106991;1272;60728;-70
2022/10/15 01:31:28;;;;;;;7.70;4.30;;;;;;;6.44;87.39;101729.55;107112;1267;70653;-71
2022/10/15 01:34:53;;;;;;;7.90;5.10;;;;;;;6.49;87.40;101726.41;107093;1278;72881;-71
2022/10/15 01:37:49;;;;;;;8.10;4.60;;;;;;;6.56;87.54;101730.79;106810;1277;62309;-70
2022/10/15 01:40:43;;;;;;;6.60;4.10;;;;;;;6.62;86.95;101729.14;107150;1268;61296;-71
2022/10/15 01:43:19;;;;;;;6.50;3.90;;;;;;;6.69;86.36;101732.70;107180;1271;74293;-71
2022/10/15 01:46:10;;;;;;;;;;;;;;;6.73;86.40;101731.48;107314;1273;71996;-71
2022/10/15 01:49:04;;;;;;;7.50;4.00;;;;;;;6.74;86.28;101729.05;107282;1268;60464;-71
2022/10/15 01:51:36;;;;;;;7.80;4.30;;;;;;;6.77;86.40;101731.69;107128;1278;65464;-71
2022/10/15 01:54:08;;;;;;;;;;;;;;;6.77;86.35;101719.73;107327;1264;62964;-71
2022/10/15 01:56:37;;;;;;;6.60;4.30;;;;;;;6.82;86.63;101730.95;107345;1266;57963;-71
2022/10/15 01:59:09;;;;;;;8.50;4.30;;;;;;;6.86;86.37;101725.27;107273;1271;71658;-71
2022/10/15 02:01:42;;;;;;;9.30;4.90;;;;;;;6.90;85.85;101724.76;107332;1266;63311;-70
2022/10/15 02:04:24;;;;;;;8.60;4.60;;;;;;;6.96;85.77;101725.58;107160;1274;59110;-71
2022/10/15 02:07:24;;;;;;;6.10;4.30;;;;;;;7.00;85.55;101727.66;107263;1276;62515;-70
2022/10/15 02:10:20;;;;;;;7.90;4.80;;;;;;;7.01;84.85;101733.48;107180;1272;57802;-71
2022/10/15 02:13:20;;;;;;;6.80;3.90;;;;;;;7.02;84.50;101736.02;107208;1266;57772;-71
2022/10/15 02:16:39;;;;;;;8.70;3.80;;;;;;;7.01;84.64;101734.34;107106;1271;73473;-72
2022/10/15 02:19:29;;;;;;;9.30;4.60;;;;;;;6.98;84.73;101732.39;107270;1261;61385;-71
2022/10/15 02:22:20;;;;;;;8.60;3.80;;;;;;;6.96;85.04;101733.71;107113;1270;59183;-72
2022/10/15 02:25:01;;;;;;;10.10;4.40;;;;;;;6.95;85.44;101737.88;106977;1280;72323;-72
2022/10/15 02:27:33;;;;;;;10.20;4.20;;;;;;;6.93;85.13;101731.73;106950;1266;63360;-72
2022/10/15 02:30:06;;;;;;;8.40;4.10;;;;;;;6.91;85.18;101733.02;107028;1274;61598;-72
2022/10/15 02:32:39;;;;;;;7.10;3.80;;;;;;;6.90;85.13;101729.26;107061;1271;74153;-71
2022/10/15 02:35:10;;;;;;;9.20;4.10;;;;;;;6.88;85.36;101736.45;107171;1262;72411;-72
2022/10/15 02:37:48;;;;;;;6.70;4.10;;;;;;;6.85;85.09;101737.05;107041;1268;69498;-72
2022/10/15 02:40:26;;;;;;;6.40;4.00;;;;;;;6.84;85.24;101732.96;107049;1268;74159;-72
2022/10/15 02:42:55;;;;;;;7.50;4.40;;;;;;;6.81;84.95;101733.61;107049;1269;58112;-72
2022/10/15 02:45:24;;;;;;;6.60;3.80;;;;;;;6.76;84.96;101733.13;107083;1271;58220;-71
2022/10/15 02:47:53;;;;;;;7.30;3.90;;;;;;;6.69;84.81;101729.92;106995;1274;73222;-72
2022/10/15 02:50:21;;;;;;;9.10;4.40;;;;;;;6.62;84.78;101727.10;107265;1269;63159;-72
2022/10/15 02:52:50;;;;;;;7.10;3.90;;;;;;;6.54;85.26;101730.35;107190;1268;60175;-72
2022/10/15 02:55:18;;;;;;;10.10;4.30;;;;;;;6.47;86.26;101729.25;107107;1274;73868;-72
2022/10/15 02:57:47;;;;;;;9.80;4.60;;;;;;;6.40;86.81;101730.03;107205;1272;57774;-71
2022/10/15 03:00:17;;;;;;;8.60;4.80;;;;;;;6.33;86.60;101732.74;107201;1277;57663;-72
2022/10/15 03:02:49;;;;;;;7.90;4.60;;;;;;;6.25;87.28;101734.41;107220;1267;63757;-69
2022/10/15 03:05:19;;;;;;;8.90;4.50;;;;;;;6.20;87.61;101733.58;107300;1263;72073;-70
2022/10/15 03:07:47;;;;;;;8.70;4.60;;;;;;;6.13;88.07;101734.89;107189;1277;70371;-70
2022/10/15 03:10:16;;;;;;;8.70;4.80;;;;;;;6.06;88.51;101732.55;107184;1271;63750;-71
2022/10/15 03:12:45;;;;;;;8.60;4.00;;;;;;;5.99;88.66;101729.34;107209;1269;57733;-70
2022/10/15 03:15:14;;;;;;;9.30;4.10;;;;;;;5.93;88.65;101729.23;107181;1271;61213;-70
2022/10/15 03:17:43;;;;;;;6.90;4.30;;;;;;;5.86;88.39;101727.55;107052;1268;72338;-70
2022/10/15 03:20:12;;;;;;;5.90;4.30;;;;;;;5.77;88.76;101728.55;107114;1262;72185;-70
2022/10/15 03:22:40;;;;;;;7.40;3.40;;;;;;;5.71;88.87;101726.87;107159;1272;60588;-70
2022/10/15 03:25:09;;;;;;;8.10;3.80;;;;;;;5.65;89.07;101723.98;107163;1277;63224;-73
2022/10/15 03:27:38;;;;;;;10.90;4.40;;;;;;;5.59;89.73;101721.06;107090;1279;57787;-70
2022/10/15 03:30:13;;;;;;;6.60;3.60;;;;;;;5.57;89.63;101723.91;107166;1271;58192;-74
2022/10/15 03:32:42;;;;;;;10.90;3.80;;;;;;;5.52;89.42;101718.89;107161;1273;62965;-70
2022/10/15 03:35:16;;;;;;;6.60;3.80;;;;;;;5.47;90.03;101722.36;107294;1269;61580;-71
2022/10/15 03:37:45;;;;;;;7.30;3.50;;;;;;;5.44;90.40;101723.52;107204;1278;59947;-68
2022/10/15 03:40:13;;;;;;;7.00;3.70;;;;;;;5.38;89.90;101723.91;107187;1268;74024;-74
2022/10/15 03:42:43;;;;;;;8.30;4.00;;;;;;;5.35;89.88;101719.34;107192;1277;57657;-71
2022/10/15 03:45:11;;;;;;;10.80;4.40;;;;;;;5.29;89.48;101720.04;107202;1271;61177;-70
2022/10/15 03:47:40;;;;;;;13.10;7.20;;;;;;;5.28;89.60;101725.10;107188;1277;62836;-70
2022/10/15 03:50:09;;;;;;;9.60;4.50;;;;;;;5.23;89.88;101725.95;107280;1272;72170;-71
2022/10/15 03:52:38;;;;;;;22.60;11.20;;;;;;;5.19;89.67;101723.51;107134;1271;61789;-71
2022/10/15 03:55:12;;;;;;;7.70;4.20;;;;;;;5.14;88.13;101725.75;107119;1271;73329;-71
2022/10/15 03:57:42;;;;;;;5.50;3.40;;;;;;;5.07;87.53;101729.59;107235;1276;57740;-70
2022/10/15 04:00:12;;;;;;;7.60;4.10;;;;;;;5.01;87.80;101727.73;107258;1272;60524;-71
2022/10/15 04:02:40;;;;;;;8.30;4.20;;;;;;;4.97;89.19;101729.75;107286;1268;75367;-72
2022/10/15 04:05:19;;;;;;;9.00;4.00;;;;;;;4.96;89.69;101731.19;107306;1267;70414;-71
2022/10/15 04:07:51;;;;;;;8.40;4.10;;;;;;;4.94;89.38;101728.14;107119;1271;70439;-72
2022/10/15 04:10:20;;;;;;;7.90;4.10;;;;;;;4.90;89.66;101728.44;107191;1268;74123;-72
2022/10/15 04:12:48;;;;;;;7.70;4.00;;;;;;;4.87;89.32;101732.15;107184;1271;61963;-71
2022/10/15 04:15:17;;;;;;;8.70;4.90;;;;;;;4.82;89.25;101731.98;107187;1271;59552;-71
2022/10/15 04:17:54;;;;;;;9.00;4.60;;;;;;;4.76;90.11;101729.91;107183;1268;74218;-71
2022/10/15 04:20:23;;;;;;;8.40;4.40;;;;;;;4.74;90.07;101733.26;107277;1277;70074;-72
2022/10/15 04:22:52;;;;;;;8.30;4.90;;;;;;;4.70;89.82;101726.48;107223;1272;70333;-70
2022/10/15 04:25:20;;;;;;;10.90;6.00;;;;;;;4.67;89.98;101729.35;107191;1271;63144;-71
2022/10/15 04:27:49;;;;;;;10.50;6.30;;;;;;;4.63;89.29;101726.19;107181;1271;57730;-70
2022/10/15 04:30:18;;;;;;;8.90;5.20;;;;;;;4.58;89.83;101722.73;107213;1270;60579;-70
2022/10/15 04:32:52;;;;;;;6.50;4.30;;;;;;;4.54;89.34;101727.02;107255;1269;64400;-70
2022/10/15 04:35:21;;;;;;;9.50;4.90;;;;;;;4.47;90.52;101725.48;107262;1269;70703;-71
2022/10/15 04:38:03;;;;;;;9.40;5.20;;;;;;;4.45;91.10;101729.35;107043;1271;59167;-71
2022/10/15 04:41:05;;;;;;;10.40;5.30;;;;;;;4.44;91.16;101726.61;107190;1268;73741;-71
2022/10/15 04:43:47;;;;;;;7.30;4.40;;;;;;;4.46;91.40;101728.79;107164;1268;57803;-72
2022/10/15 04:46:16;;;;;;;9.90;4.90;;;;;;;4.48;90.98;101727.34;107168;1273;60663;-71
2022/10/15 04:48:44;;;;;;;10.20;5.20;;;;;;;4.47;90.80;101727.72;107104;1274;74113;-72
2022/10/15 04:51:17;;;;;;;9.60;5.00;;;;;;;4.45;90.83;101728.45;107252;1272;72208;-70
2022/10/15 04:54:39;;;;;;;14.90;5.60;;;;;;;4.45;91.28;101729.67;107064;1267;70045;-71
2022/10/15 04:57:08;;;;;;;10.90;5.90;;;;;;;4.45;91.32;101727.94;107180;1272;73533;-71
2022/10/15 04:59:37;;;;;;;11.90;6.60;;;;;;;4.50;91.54;101726.58;107194;1275;58122;-71
2022/10/15 05:02:47;;;;;;;17.70;6.50;;;;;;;4.58;90.80;101726.87;107030;1269;60720;-70
2022/10/15 05:05:33;;;;;;;15.20;5.60;;;;;;;4.64;90.76;101729.27;107159;1268;75188;-70
2022/10/15 05:08:03;;;;;;;12.00;5.10;;;;;;;4.68;90.07;101733.61;107277;1268;70777;-70
2022/10/15 05:10:38;;;;;;;8.00;4.80;;;;;;;4.71;90.36;101724.55;107202;1269;59969;-70
2022/10/15 05:13:07;;;;;;;9.00;4.90;;;;;;;4.81;90.39;101729.08;107194;1271;73506;-70
2022/10/15 05:15:38;;;;;;;12.30;5.60;;;;;;;4.90;90.30;101730.52;107198;1269;57695;-70
2022/10/15 05:18:08;;;;;;;13.00;5.70;;;;;;;5.02;89.51;101732.18;106860;1274;359078;-70
2022/10/15 05:20:45;;;;;;;9.90;4.80;;;;;;;5.13;89.33;101734.05;107189;1277;64380;-72
2022/10/15 05:23:16;;;;;;;8.10;4.60;;;;;;;5.25;88.94;101739.00;107303;1268;72218;-71
2022/10/15 05:25:51;;;;;;;10.10;5.10;;;;;;;5.35;88.63;101738.69;107237;1277;59056;-70
2022/10/15 05:28:23;;;;;;;11.40;5.70;;;;;;;5.47;88.45;101742.39;107194;1269;72822;-71
2022/10/15 05:30:52;;;;;;;13.80;5.60;;;;;;;5.57;88.25;101741.37;107184;1277;57768;-71
2022/10/15 05:33:23;;;;;;;10.40;5.30;;;;;;;5.70;87.91;101748.17;107176;1271;58178;-72
2022/10/15 05:35:52;;;;;;;19.30;8.00;;;;;;;5.83;87.36;101753.92;107302;1268;63787;-68
2022/10/15 05:38:21;;;;;;;16.10;8.00;;;;;;;5.95;87.23;101749.70;107221;1265;62748;-72
2022/10/15 05:40:50;;;;;;;14.20;8.60;;;;;;;6.09;86.91;101751.79;107236;1271;60404;-78
2022/10/15 05:43:21;;;;;;;21.30;9.00;;;;;;;6.23;86.11;101750.39;107194;1276;72719;-77
2022/10/15 05:45:54;;;;;;;17.90;9.10;;;;;;;6.36;85.65;101751.11;107207;1272;58242;-74
2022/10/15 05:48:23;;;;;;;14.60;7.50;;;;;;;6.52;85.14;101755.54;107104;1278;60457;-72
2022/10/15 05:50:52;;;;;;;15.90;7.50;;;;;;;6.66;84.35;101758.27;107093;1278;63777;-71
2022/10/15 05:53:25;;;;;;;22.00;10.30;;;;;;;6.85;84.79;101761.83;107228;1269;72172;-72
2022/10/15 05:56:04;;;;;;;16.20;7.80;;;;;;;7.01;84.78;101762.23;107180;1270;68541;-74
2022/10/15 05:58:34;;;;;;;19.10;11.20;;;;;;;7.17;84.59;101762.95;107089;1274;62492;-73
2022/10/15 06:01:09;;;;;;;29.80;18.70;;;;;;;7.35;83.70;101764.83;107101;1274;61193;-73
2022/10/15 06:03:40;;;;;;;17.40;10.30;;;;;;;7.50;83.49;101764.85;107123;1281;57695;-72
2022/10/15 06:06:21;;;;;;;18.40;7.80;;;;;;;7.67;82.01;101764.29;107191;1271;74212;-71
2022/10/15 06:08:51;;;;;;;12.40;7.90;;;;;;;7.95;75.81;101763.42;107294;1258;60734;-72
2022/10/15 06:11:20;;;;;;;15.60;8.20;;;;;;;8.13;75.30;101767.81;107213;1266;60954;-75
2022/10/15 06:13:49;;;;;;;14.40;7.20;;;;;;;8.30;73.91;101766.52;106893;1279;72672;-72
2022/10/15 06:16:17;;;;;;;10.10;4.80;;;;;;;8.47;72.38;101768.52;107065;1274;58291;-76
2022/10/15 06:18:52;;;;;;;9.80;4.60;;;;;;;8.71;68.13;101766.87;107052;1269;58133;-74
2022/10/15 06:21:21;;;;;;;8.20;4.90;;;;;;;8.89;67.72;101766.91;107084;1270;74354;-75
2022/10/15 06:23:50;;;;;;;8.40;4.80;;;;;;;9.03;66.99;101767.56;107106;1275;72462;-75
2022/10/15 06:26:18;;;;;;;10.60;5.60;;;;;;;9.18;65.58;101770.34;107173;1262;59919;-72
2022/10/15 06:28:48;;;;;;;16.70;5.60;;;;;;;9.33;65.38;101771.83;107038;1268;63644;-72
2022/10/15 06:31:16;;;;;;;27.30;13.20;;;;;;;9.46;66.27;101774.65;107069;1266;61993;-74
2022/10/15 06:33:45;;;;;;;8.80;5.30;;;;;;;9.64;62.98;101775.83;107052;1278;58748;-75
2022/10/15 06:36:14;;;;;;;12.40;5.80;;;;;;;9.77;63.41;101774.59;107093;1268;65149;-73
2022/10/15 06:38:46;;;;;;;13.20;6.40;;;;;;;9.89;63.69;101776.61;107173;1277;61906;-73
2022/10/15 06:41:18;;;;;;;9.20;4.70;;;;;;;10.04;59.50;101777.70;107086;1262;60106;-73
2022/10/15 06:43:50;;;;;;;7.30;4.60;;;;;;;10.18;59.23;101777.35;107172;1275;72678;-75
2022/10/15 06:46:23;;;;;;;9.30;4.40;;;;;;;10.36;58.97;101780.03;107078;1274;60569;-79
2022/10/15 06:48:53;;;;;;;11.20;4.10;;;;;;;10.39;58.59;101783.19;107164;1273;58600;-73
2022/10/15 06:51:21;;;;;;;9.40;5.20;;;;;;;10.47;58.17;101783.10;107154;1269;74294;-74
2022/10/15 06:53:50;;;;;;;9.70;4.20;;;;;;;10.61;57.75;101786.14;107235;1269;60684;-77
2022/10/15 06:56:19;;;;;;;10.00;5.10;;;;;;;10.75;56.67;101786.57;107108;1267;70541;-70
2022/10/15 06:58:47;;;;;;;10.10;4.80;;;;;;;10.98;56.14;101786.33;107031;1271;73769;-72
2022/10/15 07:01:19;;;;;;;12.70;4.40;;;;;;;11.08;56.10;101789.27;107041;1271;58265;-72
2022/10/15 07:03:50;;;;;;;10.80;5.40;;;;;;;11.21;57.87;101793.58;107052;1274;58199;-73
2022/10/15 07:06:19;;;;;;;12.20;5.70;;;;;;;11.29;56.83;101793.60;107070;1272;63768;-74
2022/10/15 07:08:47;;;;;;;7.00;4.00;;;;;;;11.31;55.32;101793.30;107155;1268;71402;-76
2022/10/15 07:11:17;;;;;;;8.60;3.90;;;;;;;11.35;55.44;101794.48;107053;1271;60141;-73
2022/10/15 07:13:45;;;;;;;10.90;3.80;;;;;;;11.46;55.23;101792.27;107001;1271;73143;-74
2022/10/15 07:16:14;;;;;;;9.00;4.30;;;;;;;11.50;54.69;101799.02;107091;1270;58297;-73
2022/10/15 07:18:46;;;;;;;10.60;5.10;;;;;;;11.53;54.96;101796.60;107159;1272;60404;-72
2022/10/15 07:21:17;;;;;;;10.60;4.60;;;;;;;11.55;54.08;101792.46;107228;1269;63725;-73
2022/10/15 07:23:49;;;;;;;9.10;4.20;;;;;;;11.68;54.94;101794.98;107266;1272;72124;-74
2022/10/15 07:26:18;;;;;;;9.20;4.10;;;;;;;11.74;53.44;101791.30;107123;1278;59977;-76
2022/10/15 07:28:47;;;;;;;7.00;3.40;;;;;;;11.91;52.93;101790.45;107175;1267;73096;-74
2022/10/15 07:31:16;;;;;;;9.20;3.50;;;;;;;12.03;52.00;101793.45;107101;1273;60998;-75
2022/10/15 07:33:45;;;;;;;8.40;3.60;;;;;;;12.15;53.34;101794.77;106980;1275;57831;-73
2022/10/15 07:36:15;;;;;;;9.80;4.30;;;;;;;12.25;52.52;101795.56;107152;1274;74405;-74
2022/10/15 07:38:43;;;;;;;7.60;3.90;;;;;;;12.26;52.41;101797.77;107233;1263;62398;-76
2022/10/15 07:41:12;;;;;;;10.50;4.10;;;;;;;12.31;52.25;101798.46;107193;1276;60394;-74
2022/10/15 07:43:43;;;;;;;7.00;3.60;;;;;;;12.42;52.35;101797.10;107142;1271;63296;-73
2022/10/15 07:46:11;;;;;;;7.20;4.20;;;;;;;12.47;51.53;101799.40;107068;1277;61068;-74
2022/10/15 07:48:40;;;;;;;5.90;3.80;;;;;;;12.56;52.05;101797.78;107230;1275;57689;-73
2022/10/15 07:51:10;;;;;;;6.30;3.60;;;;;;;12.66;53.21;101798.73;107160;1277;72748;-73
2022/10/15 07:53:39;;;;;;;15.30;5.90;;;;;;;12.81;53.33;101796.92;107317;1270;61178;-73
2022/10/15 07:56:11;;;;;;;6.30;3.70;;;;;;;12.89;51.44;101797.42;107254;1276;69133;-72
2022/10/15 07:58:41;;;;;;;10.10;4.50;;;;;;;12.92;50.82;101791.08;107181;1274;73455;-73
2022/10/15 08:01:10;;;;;;;12.40;4.10;;;;;;;12.98;50.16;101789.13;107007;1278;58604;-71
2022/10/15 08:03:39;;;;;;;8.60;3.50;;;;;;;13.06;50.08;101789.84;107237;1277;58214;-74
2022/10/15 08:06:07;;;;;;;7.30;3.60;;;;;;;13.03;49.07;101789.49;107248;1271;65437;-75
2022/10/15 08:08:36;;;;;;;6.50;3.60;;;;;;;13.03;49.46;101788.48;107374;1262;60962;-73
2022/10/15 08:11:11;;;;;;;7.80;3.40;;;;;;;12.97;49.46;101785.04;107137;1274;60106;-74
2022/10/15 08:13:41;;;;;;;4.70;3.40;;;;;;;13.01;50.08;101785.44;107182;1277;62469;-74
2022/10/15 08:16:13;;;;;;;21.60;5.90;;;;;;;13.16;49.55;101784.09;107192;1272;61777;-74
2022/10/15 08:18:47;;;;;;;5.70;3.60;;;;;;;13.29;50.31;101784.70;107180;1274;57710;-73
2022/10/15 08:21:16;;;;;;;9.20;3.70;;;;;;;13.37;47.47;101788.36;107188;1274;71669;-72
2022/10/15 08:23:44;;;;;;;6.80;2.70;;;;;;;13.41;45.75;101785.42;107315;1263;72196;-74
2022/10/15 08:26:13;;;;;;;7.70;3.00;;;;;;;13.43;45.01;101782.11;107220;1263;60364;-76
2022/10/15 08:28:42;;;;;;;5.90;2.30;;;;;;;13.52;43.71;101770.15;107218;1273;73455;-74
2022/10/15 08:31:11;;;;;;;9.40;4.60;;;;;;;13.67;42.25;101782.83;107222;1277;61047;-74
2022/10/15 08:33:40;;;;;;;8.60;3.10;;;;;;;13.91;42.26;101784.11;107047;1272;61644;-73
2022/10/15 08:36:09;;;;;;;7.60;3.30;;;;;;;14.03;42.36;101783.25;107339;1263;64032;-76
2022/10/15 08:38:38;;;;;;;5.50;2.90;;;;;;;14.17;41.70;101780.74;107004;1277;61707;-73
2022/10/15 08:41:36;;;;;;;7.60;3.10;;;;;;;14.27;41.66;101779.87;107212;1273;70487;-75
2022/10/15 08:44:11;;;;;;;7.60;2.80;;;;;;;14.31;41.39;101781.86;107144;1269;73627;-75
2022/10/15 08:46:47;;;;;;;3.90;2.70;;;;;;;14.21;41.25;101784.11;107122;1269;58207;-73
2022/10/15 08:49:30;;;;;;;7.40;3.70;;;;;;;14.17;42.44;101783.88;107180;1274;57776;-76
2022/10/15 08:52:16;;;;;;;9.00;3.30;;;;;;;14.27;42.68;101786.65;107169;1277;64214;-74
2022/10/15 08:54:44;;;;;;;8.90;4.00;;;;;;;14.41;43.44;101790.21;107226;1269;71395;-72
2022/10/15 08:58:06;;;;;;;7.50;3.70;;;;;;;14.55;44.37;101787.84;107180;1280;59859;-74
2022/10/15 09:00:55;;;;;;;9.00;4.50;;;;;;;14.68;44.23;101790.27;107183;1274;63332;-73
2022/10/15 09:03:37;;;;;;;9.00;4.10;;;;;;;14.79;44.71;101781.72;107203;1277;58184;-72
2022/10/15 09:06:37;;;;;;;8.30;3.60;;;;;;;14.72;43.79;101781.56;107235;1271;58206;-72
2022/10/15 09:09:32;;;;;;;9.90;3.50;;;;;;;14.64;43.21;101786.18;106946;1273;63798;-73
2022/10/15 09:12:44;;;;;;;5.00;3.30;;;;;;;14.77;43.35;101786.45;107111;1269;71925;-72
2022/10/15 09:15:18;;;;;;;7.50;4.30;;;;;;;14.85;42.65;101786.36;107127;1274;60636;-72
2022/10/15 09:17:54;;;;;;;7.10;3.50;;;;;;;14.76;41.48;101788.59;107047;1274;65071;-73
2022/10/15 09:20:32;;;;;;;10.40;3.60;;;;;;;14.86;41.45;101789.48;107080;1274;60604;-74
2022/10/15 09:23:01;;;;;;;7.30;3.20;;;;;;;14.93;41.32;101786.64;107075;1268;57763;-73
2022/10/15 09:25:40;;;;;;;7.60;3.80;;;;;;;14.97;40.30;101787.44;107100;1275;63780;-82
2022/10/15 09:28:16;;;;;;;7.30;3.40;;;;;;;15.09;40.31;101786.52;107274;1272;61129;-75
2022/10/15 09:30:52;;;;;;;8.20;3.70;;;;;;;15.04;38.92;101784.82;107200;1274;70441;-74
2022/10/15 09:33:52;;;;;;;7.10;3.20;;;;;;;14.96;39.27;101784.67;107097;1268;71881;-73
2022/10/15 09:36:52;;;;;;;7.40;3.20;;;;;;;14.97;38.71;101785.48;107184;1269;57708;-76
2022/10/15 09:39:46;;;;;;;6.70;3.00;;;;;;;15.10;38.93;101785.94;107146;1281;57776;-74
2022/10/15 09:42:35;;;;;;;6.10;2.80;;;;;;;15.20;39.04;101783.60;107306;1272;64500;-75
2022/10/15 09:45:10;;;;;;;7.00;3.00;;;;;;;15.23;38.71;101780.21;107257;1265;61786;-75
2022/10/15 09:47:41;;;;;;;6.30;3.50;;;;;;;14.94;38.40;101781.50;107216;1275;59990;-75
2022/10/15 09:50:13;;;;;;;7.90;4.00;;;;;;;15.08;38.84;101784.99;107195;1268;72393;-75
2022/10/15 09:52:56;;;;;;;6.50;2.90;;;;;;;15.26;38.72;101777.34;107222;1272;61501;-73
2022/10/15 09:55:34;;;;;;;6.40;2.70;;;;;;;15.38;38.27;101771.89;107307;1271;57659;-74
2022/10/15 09:58:11;;;;;;;8.70;3.30;;;;;;;15.50;38.80;101770.83;107246;1280;64083;-76
2022/10/15 10:00:52;;;;;;;6.00;2.70;;;;;;;15.63;38.04;101769.67;107295;1264;70476;-75
2022/10/15 10:03:24;;;;;;;6.70;2.70;;;;;;;15.60;37.51;101770.72;107101;1266;69980;-73
2022/10/15 10:06:11;;;;;;;6.50;3.00;;;;;;;15.65;37.57;101767.02;107108;1268;73615;-71
2022/10/15 10:08:55;;;;;;;;;;;;;;;15.63;36.89;101767.17;107112;1277;60726;-73
2022/10/15 10:11:26;;;;;;;6.60;2.60;;;;;;;15.74;37.14;101764.08;107133;1272;60236;-75
2022/10/15 10:13:58;;;;;;;8.00;3.00;;;;;;;15.95;37.33;101767.71;107011;1272;66171;-75
2022/10/15 10:16:28;;;;;;;8.40;4.00;;;;;;;16.06;36.77;101766.27;107156;1266;71419;-72
2022/10/15 10:19:14;;;;;;;11.40;3.40;;;;;;;16.24;36.88;101763.61;107162;1278;59486;-72
2022/10/15 10:21:43;;;;;;;4.90;2.50;;;;;;;16.53;36.29;101762.87;107191;1271;73862;-75
2022/10/15 10:24:33;;;;;;;9.50;3.40;;;;;;;16.60;35.80;101759.55;107175;1268;59386;-71
2022/10/15 10:27:02;;;;;;;6.40;2.60;;;;;;;16.35;35.35;101761.52;107185;1268;60569;-72
2022/10/15 10:29:40;;;;;;;9.10;3.20;;;;;;;16.44;35.10;101757.11;107130;1269;73892;-75
2022/10/15 10:32:29;;;;;;;7.10;2.70;;;;;;;16.53;35.16;101755.00;107104;1275;61252;-74
2022/10/15 10:35:01;;;;;;;5.40;2.50;;;;;;;16.89;35.59;101755.73;107136;1269;60491;-73
2022/10/15 10:37:41;;;;;;;5.70;2.90;;;;;;;17.09;34.71;101753.41;107133;1275;73825;-77
2022/10/15 10:40:23;;;;;;;6.00;2.80;;;;;;;16.67;34.22;101748.79;107140;1278;59726;-76
2022/10/15 10:43:16;;;;;;;6.00;2.90;;;;;;;16.82;34.71;101746.46;107205;1268;60529;-76
2022/10/15 10:46:15;;;;;;;5.20;3.40;;;;;;;16.85;34.63;101749.06;107179;1275;62962;-74
2022/10/15 10:48:52;;;;;;;5.50;2.60;;;;;;;17.17;34.49;101741.77;107242;1266;62200;-76
2022/10/15 10:51:23;;;;;;;5.90;2.60;;;;;;;17.27;34.52;101740.30;107163;1273;59802;-74
2022/10/15 10:54:07;;;;;;;8.10;2.80;;;;;;;17.46;34.04;101739.15;107230;1272;63294;-76
2022/10/15 10:56:41;;;;;;;6.80;2.90;;;;;;;17.35;33.51;101736.61;107188;1277;57706;-77
2022/10/15 10:59:27;;;;;;;5.30;2.70;;;;;;;17.39;33.50;101734.67;107246;1268;57726;-75
2022/10/15 11:01:56;;;;;;;5.10;2.50;;;;;;;17.49;33.41;101733.08;107246;1266;74877;-75
2022/10/15 11:04:31;;;;;;;7.20;2.80;;;;;;;17.64;33.48;101732.56;107345;1265;71141;-73
2022/10/15 11:07:26;;;;;;;5.00;2.70;;;;;;;17.82;33.09;101730.98;107264;1274;70892;-75
2022/10/15 11:10:38;;;;;;;6.70;3.10;;;;;;;17.95;32.98;101724.73;107204;1275;72811;-73
2022/10/15 11:13:47;;;;;;;6.40;2.80;;;;;;;18.05;32.59;101721.23;107270;1271;60721;-73
2022/10/15 11:16:40;;;;;;;4.90;2.60;;;;;;;18.62;32.35;101720.69;107262;1272;59811;-73
2022/10/15 11:19:28;;;;;;;8.00;2.90;;;;;;;18.64;31.24;101717.36;107251;1271;73789;-73
2022/10/15 11:22:46;;;;;;;7.50;3.20;;;;;;;18.78;31.87;101711.15;107321;1268;61456;-76
2022/10/15 11:25:45;;;;;;;5.20;2.40;;;;;;;18.57;31.63;101714.50;107200;1271;59977;-77
2022/10/15 11:28:28;;;;;;;5.90;2.70;;;;;;;18.86;31.61;101714.29;107240;1276;64540;-75
2022/10/15 11:31:38;;;;;;;6.70;2.40;;;;;;;19.06;31.13;101710.73;107207;1274;58293;-75
2022/10/15 11:34:31;;;;;;;4.50;2.40;;;;;;;18.64;31.21;101704.82;107243;1263;60670;-76
2022/10/15 11:37:25;;;;;;;5.10;2.90;;;;;;;18.18;31.98;101706.71;107238;1272;74345;-73
2022/10/15 11:40:47;;;;;;;4.60;2.60;;;;;;;18.81;32.02;101708.61;107349;1269;72467;-75
2022/10/15 11:43:37;;;;;;;4.50;2.90;;;;;;;18.78;31.44;101704.29;107036;1271;68697;-75
2022/10/15 11:46:30;;;;;;;;;;;;;;;19.24;30.74;101706.50;107266;1271;72988;-76
2022/10/15 11:49:05;;;;;;;12.40;3.00;;;;;;;19.01;30.86;101703.70;107245;1272;57768;-73
2022/10/15 11:52:05;;;;;;;6.80;3.00;;;;;;;18.67;31.72;101702.65;107197;1282;61250;-73
2022/10/15 11:54:41;;;;;;;6.50;2.80;;;;;;;19.34;31.08;101697.27;107188;1274;62935;-77
2022/10/15 11:57:15;;;;;;;5.60;2.60;;;;;;;19.31;30.45;101701.46;107242;1269;72279;-74
2022/10/15 12:00:05;;;;;;;7.10;2.70;;;;;;;19.77;29.95;101701.20;107168;1270;59915;-75
2022/10/15 12:02:39;;;;;;;3.90;2.30;;;;;;;19.77;29.99;101700.45;107131;1272;63362;-76
2022/10/15 12:05:12;;;;;;;8.90;2.50;;;;;;;19.99;29.80;101699.98;107204;1276;58100;-74